Time;durP1;ratioP1;P1;durP2;ratioP2;P2;SDS_P1;SDS_P2;PMS_P1;PMS_P2;Temp;Humidity;BMP_temperature;BMP_pressure;BME280_temperature;BME280_humidity;BME280_pressure;Samples;Min_cycle;Max_cycle;Signal;HPM_P1;HPM_P2
2023/10/21 00:01:26;;;;;;;11.60;7.65;;;;;;;8.35;100.00;98600.06;7400324;19;19918;-67
2023/10/21 00:03:55;;;;;;;11.30;7.88;;;;;;;8.36;100.00;98593.66;7400242;19;20653;-67
2023/10/21 00:06:23;;;;;;;13.45;8.43;;;;;;;8.37;100.00;98594.47;7400446;19;19922;-67
2023/10/21 00:08:54;;;;;;;11.50;7.30;;;;;;;8.38;100.00;98604.16;7400240;19;19974;-67
2023/10/21 00:11:23;;;;;;;13.00;8.13;;;;;;;8.37;100.00;98611.38;7399599;19;19990;-67
2023/10/21 00:13:52;;;;;;;11.98;7.20;;;;;;;8.38;100.00;98613.03;7399830;19;19914;-67
2023/10/21 00:16:20;;;;;;;13.57;7.70;;;;;;;8.39;100.00;98613.84;7400118;19;19923;-67
2023/10/21 00:18:49;;;;;;;14.55;8.20;;;;;;;8.40;100.00;98619.00;7400171;19;19915;-67
2023/10/21 00:21:18;;;;;;;14.07;7.90;;;;;;;8.41;100.00;98612.59;7399682;19;20262;-67
2023/10/21 00:23:46;;;;;;;12.75;8.80;;;;;;;8.43;100.00;98620.41;7399579;19;19922;-67
2023/10/21 00:26:18;;;;;;;15.38;9.93;;;;;;;8.43;100.00;98626.59;7400043;19;19919;-67
2023/10/21 00:28:46;;;;;;;14.10;8.90;;;;;;;8.44;100.00;98627.44;7398971;19;19918;-67
2023/10/21 00:31:15;;;;;;;13.48;8.90;;;;;;;8.46;100.00;98634.22;7399288;19;19915;-67
2023/10/21 00:33:43;;;;;;;15.75;9.88;;;;;;;8.48;100.00;98628.66;7399345;19;19918;-67
2023/10/21 00:36:12;;;;;;;13.23;9.98;;;;;;;8.49;100.00;98627.59;7399862;19;19954;-67
2023/10/21 00:38:41;;;;;;;16.08;9.25;;;;;;;8.51;100.00;98628.19;7398971;19;20353;-67
2023/10/21 00:41:10;;;;;;;14.88;9.30;;;;;;;8.51;100.00;98628.19;7399747;19;19918;-67
2023/10/21 00:43:43;;;;;;;16.55;10.00;;;;;;;8.50;100.00;98634.63;7398809;19;20021;-67
2023/10/21 00:46:14;;;;;;;14.93;8.57;;;;;;;8.49;100.00;98638.34;7399189;19;19963;-67
2023/10/21 00:48:44;;;;;;;15.50;10.15;;;;;;;8.48;100.00;98639.38;7398436;19;19925;-67
2023/10/21 00:51:13;;;;;;;16.40;9.45;;;;;;;8.47;100.00;98641.22;7398801;19;20271;-67
2023/10/21 00:53:45;;;;;;;17.48;9.95;;;;;;;8.46;100.00;98653.00;7399344;19;19921;-67
2023/10/21 00:56:14;;;;;;;12.80;8.75;;;;;;;8.48;100.00;98652.78;7398838;19;19935;-67
2023/10/21 00:58:45;;;;;;;15.95;8.65;;;;;;;8.47;100.00;98653.81;7398792;19;20294;-67
2023/10/21 01:01:14;;;;;;;17.48;10.80;;;;;;;8.47;100.00;98660.00;7397927;19;19919;-67
2023/10/21 01:03:42;;;;;;;17.15;10.43;;;;;;;8.48;100.00;98660.84;7398466;19;19914;-67
2023/10/21 01:06:11;;;;;;;15.32;9.70;;;;;;;8.49;100.00;98657.13;7398108;19;19952;-67
2023/10/21 01:08:43;;;;;;;19.75;10.43;;;;;;;8.51;100.00;98663.09;7403379;19;19925;-67
2023/10/21 01:11:11;;;;;;;16.00;10.10;;;;;;;8.52;100.00;98670.09;7404198;19;20720;-67
2023/10/21 01:13:43;;;;;;;22.25;10.75;;;;;;;8.53;100.00;98669.91;7404084;19;19940;-67
2023/10/21 01:16:14;;;;;;;17.20;9.60;;;;;;;8.55;100.00;98666.97;7403487;19;19978;-67
2023/10/21 01:18:42;;;;;;;19.08;9.75;;;;;;;8.56;100.00;98671.31;7404566;19;19914;-67
2023/10/21 01:21:11;;;;;;;18.30;10.02;;;;;;;8.57;100.00;98671.09;7404691;19;19929;-67
2023/10/21 01:23:43;;;;;;;22.55;11.35;;;;;;;8.57;100.00;98681.00;7404371;19;19939;-67
2023/10/21 01:26:11;;;;;;;30.85;11.02;;;;;;;8.59;100.00;98684.28;7404660;19;19918;-67
2023/10/21 01:28:40;;;;;;;21.85;10.32;;;;;;;8.59;100.00;98690.47;7404219;19;19936;-67
2023/10/21 01:31:09;;;;;;;21.75;10.48;;;;;;;8.61;100.00;98701.00;7404213;19;19923;-67
2023/10/21 01:33:37;;;;;;;22.50;10.05;;;;;;;8.62;100.00;98695.44;7404171;19;19923;-67
2023/10/21 01:36:06;;;;;;;25.02;10.25;;;;;;;8.63;100.00;98691.69;7405331;19;19935;-67
2023/10/21 01:38:34;;;;;;;25.73;10.98;;;;;;;8.64;100.00;98693.34;7403983;19;19922;-67
2023/10/21 01:41:05;;;;;;;25.00;11.45;;;;;;;8.66;100.00;98690.44;7404434;19;19944;-67
2023/10/21 01:43:34;;;;;;;26.58;10.32;;;;;;;8.67;100.00;98702.00;7400783;19;19927;-67
2023/10/21 01:46:23;;;;;;;19.88;10.95;;;;;;;8.68;100.00;98707.13;7402205;19;19926;-67
2023/10/21 01:48:52;;;;;;;22.58;10.23;;;;;;;8.70;100.00;98704.25;7403611;19;20279;-67
2023/10/21 01:51:20;;;;;;;39.53;12.40;;;;;;;8.70;100.00;98705.06;7403206;19;19994;-67
2023/10/21 01:53:49;;;;;;;19.17;10.50;;;;;;;8.72;100.00;98710.19;7403478;19;19953;-67
2023/10/21 01:56:20;;;;;;;18.45;10.15;;;;;;;8.74;100.00;98718.88;7403005;19;19914;-67
2023/10/21 01:58:48;;;;;;;19.75;10.75;;;;;;;8.74;100.00;98725.06;7403600;19;20503;-67
2023/10/21 02:01:17;;;;;;;17.67;10.13;;;;;;;8.75;100.00;98723.22;7403175;19;19919;-67
2023/10/21 02:03:45;;;;;;;18.83;10.35;;;;;;;8.76;100.00;98727.53;7402959;19;19919;-67
2023/10/21 02:06:14;;;;;;;19.55;10.82;;;;;;;8.77;100.00;98729.16;7403538;19;19926;-67
2023/10/21 02:08:42;;;;;;;24.23;10.35;;;;;;;8.78;100.00;98726.28;7403220;19;19923;-67
2023/10/21 02:11:11;;;;;;;19.58;9.70;;;;;;;8.80;100.00;98734.13;7402542;19;20346;-67
2023/10/21 02:13:42;;;;;;;36.90;10.88;;;;;;;8.81;100.00;98725.00;7403029;19;19923;-67
2023/10/21 02:16:11;;;;;;;22.65;11.27;;;;;;;8.81;100.00;98736.56;7402715;19;19931;-67
2023/10/21 02:18:40;;;;;;;19.35;9.77;;;;;;;8.82;100.00;98742.75;7402250;19;19914;-67
2023/10/21 02:21:09;;;;;;;18.73;10.00;;;;;;;8.84;100.00;98749.56;7403014;19;19914;-67
2023/10/21 02:23:37;;;;;;;24.73;10.65;;;;;;;8.83;100.00;98750.59;7402573;19;19914;-67
2023/10/21 02:26:07;;;;;;;19.33;10.20;;;;;;;8.86;100.00;98760.09;7402982;19;19933;-67
2023/10/21 02:28:37;;;;;;;19.63;10.02;;;;;;;8.86;100.00;98752.03;7402062;19;19919;-67
2023/10/21 02:31:09;;;;;;;16.58;10.13;;;;;;;8.86;100.00;98750.16;7403346;19;20006;-67
2023/10/21 02:33:37;;;;;;;21.38;10.35;;;;;;;8.86;100.00;98755.53;7402919;19;19918;-69
2023/10/21 02:36:06;;;;;;;23.30;9.82;;;;;;;8.87;100.00;98757.19;7402719;19;19958;-68
2023/10/21 02:38:35;;;;;;;19.88;10.20;;;;;;;8.88;100.00;98761.53;7402846;19;19918;-67
2023/10/21 02:41:06;;;;;;;21.08;9.55;;;;;;;8.90;100.00;98770.16;7403234;19;20258;-67
2023/10/21 02:43:36;;;;;;;25.70;8.85;;;;;;;8.90;100.00;98774.72;7403134;19;19910;-67
2023/10/21 02:46:16;;;;;;;36.03;9.50;;;;;;;8.88;100.00;98785.69;7402120;19;19929;-67
2023/10/21 02:48:45;;;;;;;20.70;9.20;;;;;;;8.92;100.00;98792.28;7403092;19;19922;-67
2023/10/21 02:51:15;;;;;;;27.10;10.02;;;;;;;8.94;100.00;98789.34;7402659;19;19911;-67
2023/10/21 02:53:44;;;;;;;19.60;9.63;;;;;;;8.94;100.00;98795.53;7402151;19;20258;-67
2023/10/21 02:56:13;;;;;;;24.02;8.93;;;;;;;8.95;100.00;98793.69;7402039;19;20679;-67
2023/10/21 02:58:42;;;;;;;25.00;9.80;;;;;;;8.97;100.00;98807.72;7402497;19;19937;-67
2023/10/21 03:01:18;;;;;;;25.30;9.95;;;;;;;8.97;100.00;98787.03;7402704;19;19943;-67
2023/10/21 03:03:48;;;;;;;19.08;10.02;;;;;;;8.99;100.00;98792.22;7402013;19;20280;-67
2023/10/21 03:06:19;;;;;;;26.38;10.40;;;;;;;9.01;100.00;98806.25;7402613;19;19919;-67
2023/10/21 03:08:48;;;;;;;38.53;10.40;;;;;;;9.02;100.00;98808.72;7401448;19;19970;-67
2023/10/21 03:11:17;;;;;;;19.50;9.38;;;;;;;9.02;100.00;98808.72;7401837;19;19974;-67
2023/10/21 03:13:46;;;;;;;30.92;9.88;;;;;;;9.03;100.00;98807.69;7401194;19;19922;-67
2023/10/21 03:16:17;;;;;;;32.25;9.88;;;;;;;9.04;100.00;98805.81;7402289;19;19919;-67
2023/10/21 03:18:47;;;;;;;27.67;9.57;;;;;;;9.04;100.00;98806.63;7401658;19;19914;-67
2023/10/21 03:21:15;;;;;;;23.52;10.13;;;;;;;9.05;100.00;98807.47;7401933;19;20372;-67
2023/10/21 03:23:44;;;;;;;25.42;9.63;;;;;;;9.06;100.00;98817.19;7401736;19;19941;-67
2023/10/21 03:26:12;;;;;;;33.28;9.82;;;;;;;9.05;100.00;98818.22;7402250;19;19926;-67
2023/10/21 03:28:43;;;;;;;21.02;10.32;;;;;;;9.06;100.00;98820.66;7401413;19;19948;-67
2023/10/21 03:31:12;;;;;;;23.95;8.48;;;;;;;9.07;100.00;98833.06;7398764;19;20253;-67
2023/10/21 03:33:44;;;;;;;22.20;10.13;;;;;;;9.09;100.00;98835.53;7401150;19;19927;-67
2023/10/21 03:36:12;;;;;;;;;;;;;;;9.00;100.00;98836.84;7404104;19;19922;-67
2023/10/21 03:38:42;;;;;;;35.85;9.88;;;;;;;9.06;100.00;98828.72;7401455;19;20322;-67
2023/10/21 03:41:11;;;;;;;22.88;8.80;;;;;;;9.07;100.00;98832.22;7400354;19;19970;-67
2023/10/21 03:43:40;;;;;;;38.10;9.35;;;;;;;9.07;100.00;98826.84;7401525;19;19928;-67
2023/10/21 03:46:14;;;;;;;27.17;9.20;;;;;;;9.08;100.00;98833.88;7400379;19;19925;-67
2023/10/21 03:48:46;;;;;;;23.77;9.70;;;;;;;9.07;100.00;98833.06;7401174;19;19910;-67
2023/10/21 03:51:14;;;;;;;17.65;9.18;;;;;;;9.06;100.00;98839.47;7400499;19;20360;-67
2023/10/21 03:53:44;;;;;;;18.38;7.65;;;;;;;9.06;100.00;98842.16;7401074;19;19938;-67
2023/10/21 03:56:13;;;;;;;26.75;9.63;;;;;;;9.06;100.00;98849.41;7400143;19;19918;-67
2023/10/21 03:58:43;;;;;;;14.38;8.00;;;;;;;9.05;100.00;98851.28;7400626;19;19922;-67
2023/10/21 04:01:11;;;;;;;18.42;8.85;;;;;;;9.05;100.00;98850.44;7400768;19;20368;-67
2023/10/21 04:03:40;;;;;;;13.70;8.35;;;;;;;9.05;100.00;98858.50;7400371;19;19915;-67
2023/10/21 04:06:13;;;;;;;17.65;8.85;;;;;;;9.05;100.00;98864.69;7400652;19;19935;-67
2023/10/21 04:08:42;;;;;;;19.17;8.48;;;;;;;9.06;100.00;98866.31;7399193;19;20369;-67
2023/10/21 04:11:11;;;;;;;16.95;9.73;;;;;;;9.08;100.00;98869.63;7400437;19;19915;-67
2023/10/21 04:13:39;;;;;;;15.07;8.98;;;;;;;9.09;100.00;98867.78;7399785;19;19922;-67
2023/10/21 04:16:08;;;;;;;14.32;7.93;;;;;;;9.10;100.00;98875.59;7400058;19;20299;-67
2023/10/21 04:18:36;;;;;;;13.48;8.63;;;;;;;9.13;100.00;98873.53;7399479;19;19923;-67
2023/10/21 04:21:05;;;;;;;13.77;8.55;;;;;;;9.13;100.00;98876.22;7400121;19;19956;-67
2023/10/21 04:23:36;;;;;;;15.75;9.30;;;;;;;9.13;100.00;98873.53;7399019;19;19934;-67
2023/10/21 04:26:06;;;;;;;18.65;9.00;;;;;;;9.12;100.00;98888.81;7399805;19;19929;-67
2023/10/21 04:28:35;;;;;;;13.38;8.77;;;;;;;9.11;100.00;98882.63;7399203;19;19915;-67
2023/10/21 04:31:03;;;;;;;15.80;8.85;;;;;;;9.11;100.00;98888.00;7399772;19;19959;-67
2023/10/21 04:33:32;;;;;;;16.77;8.75;;;;;;;9.10;100.00;98888.22;7398987;19;20387;-67
2023/10/21 04:36:00;;;;;;;17.40;8.68;;;;;;;9.08;100.00;98893.81;7399584;19;20720;-67
2023/10/21 04:38:29;;;;;;;15.75;8.50;;;;;;;9.06;100.00;98901.25;7398271;19;19940;-67
2023/10/21 04:41:00;;;;;;;12.73;8.55;;;;;;;9.05;100.00;98896.94;7399231;19;19914;-67
2023/10/21 04:43:28;;;;;;;15.25;8.38;;;;;;;9.04;100.00;98902.50;7402925;19;19919;-67
2023/10/21 04:45:57;;;;;;;11.93;7.85;;;;;;;9.04;100.00;98902.50;7404649;19;20345;-67
2023/10/21 04:48:26;;;;;;;15.55;8.38;;;;;;;9.05;100.00;98904.16;7405656;19;20262;-67
2023/10/21 04:50:55;;;;;;;12.02;7.60;;;;;;;9.04;100.00;98915.94;7404376;19;19918;-67
2023/10/21 04:53:23;;;;;;;14.00;9.02;;;;;;;9.03;100.00;98916.97;7404696;19;20005;-67
2023/10/21 04:55:52;;;;;;;11.95;7.90;;;;;;;9.03;100.00;98917.78;7404527;19;19922;-67
2023/10/21 04:58:23;;;;;;;12.30;8.00;;;;;;;8.99;100.00;98913.88;7404772;19;19911;-67
2023/10/21 05:00:51;;;;;;;13.90;8.80;;;;;;;8.97;100.00;98918.63;7403928;19;19926;-67
2023/10/21 05:03:20;;;;;;;12.82;8.38;;;;;;;8.92;100.00;98921.16;7404418;19;19918;-67
2023/10/21 05:05:49;;;;;;;12.77;7.63;;;;;;;8.89;100.00;98926.94;7404648;19;19986;-67
2023/10/21 05:08:17;;;;;;;11.77;8.27;;;;;;;8.86;100.00;98932.75;7404412;19;19936;-67
2023/10/21 05:10:46;;;;;;;12.50;7.65;;;;;;;8.84;100.00;98934.84;7404390;19;20358;-67
2023/10/21 05:13:16;;;;;;;11.85;7.78;;;;;;;8.82;100.00;98936.91;7404782;19;19926;-67
2023/10/21 05:15:47;;;;;;;14.45;7.65;;;;;;;8.80;100.00;98932.78;7404148;19;20617;-67
2023/10/21 05:18:16;;;;;;;13.52;7.35;;;;;;;8.77;100.00;98928.66;7404696;19;19910;-67
2023/10/21 05:20:44;;;;;;;10.95;6.47;;;;;;;8.75;100.00;98944.16;7404655;19;19918;-67
2023/10/21 05:23:14;;;;;;;10.95;7.00;;;;;;;8.75;100.00;98944.16;7403914;19;19914;-66
2023/10/21 05:25:42;;;;;;;12.57;7.60;;;;;;;8.72;100.00;98941.88;7404635;19;19919;-66
2023/10/21 05:28:18;;;;;;;9.48;6.50;;;;;;;8.72;100.00;98947.25;7404342;19;20316;-67
2023/10/21 05:30:49;;;;;;;11.95;7.50;;;;;;;8.73;100.00;98954.28;7404953;19;19983;-66
2023/10/21 05:33:18;;;;;;;17.35;7.90;;;;;;;8.71;100.00;98960.91;7403737;19;19957;-66
2023/10/21 05:35:47;;;;;;;11.38;7.30;;;;;;;8.72;100.00;98967.91;7404124;19;19910;-66
2023/10/21 05:38:15;;;;;;;12.45;7.10;;;;;;;8.70;100.00;98973.50;7403984;19;19915;-66
2023/10/21 05:40:44;;;;;;;10.80;6.85;;;;;;;8.72;100.00;98973.28;7404337;19;19919;-66
2023/10/21 05:43:13;;;;;;;11.40;6.95;;;;;;;8.72;100.00;98973.28;7404311;19;19911;-67
2023/10/21 05:45:43;;;;;;;12.02;7.35;;;;;;;8.72;100.00;98978.63;7404132;19;19964;-67
2023/10/21 05:48:14;;;;;;;8.77;6.50;;;;;;;8.72;100.00;98987.53;7404154;19;19940;-67
2023/10/21 05:50:43;;;;;;;;;;;;;;;8.61;100.00;98982.81;7405907;19;20337;-67
2023/10/21 05:53:11;;;;;;;10.85;6.95;;;;;;;8.70;100.00;98996.84;7404006;19;19977;-67
2023/10/21 05:55:43;;;;;;;10.85;6.53;;;;;;;8.73;100.00;99009.81;7401510;19;19922;-67
2023/10/21 05:58:12;;;;;;;9.25;6.80;;;;;;;8.72;100.00;99011.69;7403641;19;19919;-67
2023/10/21 06:00:40;;;;;;;10.07;7.05;;;;;;;8.74;100.00;99015.00;7402624;19;19918;-67
2023/10/21 06:03:09;;;;;;;11.10;6.45;;;;;;;8.74;100.00;99020.38;7403732;19;19949;-67
2023/10/21 06:05:40;;;;;;;11.98;6.85;;;;;;;8.75;100.00;99029.25;7402769;19;19914;-67
2023/10/21 06:08:10;;;;;;;12.57;7.00;;;;;;;8.77;100.00;99032.53;7403550;19;19919;-67
2023/10/21 06:10:41;;;;;;;9.98;6.60;;;;;;;8.77;100.00;99041.41;7403166;19;20026;-67
2023/10/21 06:13:10;;;;;;;12.02;6.90;;;;;;;8.78;100.00;99047.59;7402713;19;19963;-67
2023/10/21 06:15:38;;;;;;;10.68;7.30;;;;;;;8.78;100.00;99045.75;7402894;19;19930;-67
2023/10/21 06:18:07;;;;;;;9.30;6.35;;;;;;;8.80;100.00;99053.59;7403244;19;19947;-67
2023/10/21 06:20:36;;;;;;;9.90;6.25;;;;;;;8.80;100.00;99056.28;7402438;19;20258;-67
2023/10/21 06:23:07;;;;;;;10.93;6.75;;;;;;;8.81;100.00;99057.91;7403289;19;19918;-67
2023/10/21 06:25:36;;;;;;;;;;;;;;;8.74;100.00;99054.44;7405097;19;19926;-67
2023/10/21 06:28:04;;;;;;;10.60;6.68;;;;;;;8.79;100.00;99063.53;7402612;19;19954;-67
2023/10/21 06:30:33;;;;;;;10.63;7.03;;;;;;;8.83;100.00;99064.75;7403188;19;19922;-67
2023/10/21 06:33:02;;;;;;;12.00;6.30;;;;;;;8.86;100.00;99068.84;7402206;19;20295;-67
2023/10/21 06:35:32;;;;;;;12.25;5.95;;;;;;;8.86;100.00;99067.00;7402641;19;19915;-67
2023/10/21 06:38:00;;;;;;;13.13;7.20;;;;;;;8.90;100.00;99075.47;7402109;19;19925;-67
2023/10/21 06:40:31;;;;;;;9.02;6.28;;;;;;;8.90;100.00;99081.66;7402397;19;20394;-67
2023/10/21 06:43:00;;;;;;;10.48;7.28;;;;;;;8.92;100.00;99089.53;7401958;19;19939;-67
2023/10/21 06:45:29;;;;;;;9.45;6.30;;;;;;;8.94;100.00;99085.56;7402005;19;19918;-67
2023/10/21 06:47:57;;;;;;;10.38;6.18;;;;;;;8.97;100.00;99093.19;7401208;19;19943;-67
2023/10/21 06:50:26;;;;;;;10.05;6.13;;;;;;;8.99;100.00;99099.19;7402194;19;19927;-67
2023/10/21 06:52:55;;;;;;;8.23;5.75;;;;;;;9.02;100.00;99097.94;7401950;19;19922;-67
2023/10/21 06:55:24;;;;;;;9.00;6.30;;;;;;;9.04;100.00;99103.94;7401902;19;19918;-67
2023/10/21 06:57:56;;;;;;;11.93;6.20;;;;;;;9.06;100.00;99104.56;7402067;19;20278;-67
2023/10/21 07:00:24;;;;;;;9.10;6.00;;;;;;;9.07;100.00;99096.28;7402360;19;19926;-67
2023/10/21 07:02:53;;;;;;;9.52;6.38;;;;;;;9.10;100.00;99111.19;7401292;19;19915;-67
2023/10/21 07:05:22;;;;;;;9.15;6.25;;;;;;;9.13;100.00;99120.66;7401282;19;19918;-67
2023/10/21 07:07:51;;;;;;;11.57;6.97;;;;;;;9.14;100.00;99117.78;7401950;19;19927;-67
2023/10/21 07:10:19;;;;;;;10.25;7.00;;;;;;;9.16;100.00;99131.81;7401559;19;19922;-67
2023/10/21 07:12:48;;;;;;;9.45;6.60;;;;;;;9.16;100.00;99128.28;7401327;19;20567;-67
2023/10/21 07:15:19;;;;;;;9.35;5.88;;;;;;;9.20;100.00;99133.03;7401336;19;19915;-67
2023/10/21 07:17:48;;;;;;;10.35;6.75;;;;;;;9.22;100.00;99136.34;7401339;19;19939;-67
2023/10/21 07:20:16;;;;;;;11.25;6.28;;;;;;;9.24;100.00;99142.31;7401498;19;19959;-67
2023/10/21 07:22:47;;;;;;;9.27;6.47;;;;;;;9.28;100.00;99145.41;7401832;19;19926;-67
2023/10/21 07:25:18;;;;;;;10.52;6.50;;;;;;;9.30;100.00;99154.09;7401294;19;19914;-67
2023/10/21 07:27:46;;;;;;;11.98;6.88;;;;;;;9.34;100.00;99155.31;7401991;19;19919;-67
2023/10/21 07:30:15;;;;;;;9.55;6.80;;;;;;;9.36;100.00;99156.75;7401360;19;19914;-67
2023/10/21 07:32:47;;;;;;;12.75;6.18;;;;;;;9.40;100.00;99173.31;7400744;19;19935;-67
2023/10/21 07:35:16;;;;;;;13.18;7.25;;;;;;;9.42;100.00;99173.91;7401448;19;19951;-67
2023/10/21 07:37:44;;;;;;;11.30;7.22;;;;;;;9.43;100.00;99180.94;7401179;19;20032;-67
2023/10/21 07:40:14;;;;;;;9.82;6.32;;;;;;;9.46;100.00;99184.03;7400948;19;19922;-67
2023/10/21 07:42:43;;;;;;;10.50;6.68;;;;;;;9.48;100.00;99190.03;7401168;19;20428;-67
2023/10/21 07:45:14;;;;;;;11.75;6.63;;;;;;;9.53;100.00;99192.09;7401431;19;19926;-67
2023/10/21 07:47:43;;;;;;;9.23;6.20;;;;;;;9.54;100.00;99194.56;7400443;19;19935;-67
2023/10/21 07:50:14;;;;;;;10.65;6.15;;;;;;;9.58;100.00;99195.78;7400740;19;20380;-67
2023/10/21 07:52:43;;;;;;;10.00;6.00;;;;;;;9.63;100.00;99197.84;7400327;19;19925;-67
2023/10/21 07:55:13;;;;;;;12.52;6.32;;;;;;;9.69;100.00;99202.38;7400619;19;19922;-67
2023/10/21 07:57:42;;;;;;;11.25;6.93;;;;;;;9.74;100.00;99204.44;7400450;19;20014;-67
2023/10/21 08:00:13;;;;;;;10.73;6.35;;;;;;;9.77;100.00;99210.19;7400766;19;19926;-67
2023/10/21 08:02:42;;;;;;;10.32;6.05;;;;;;;9.81;100.00;99211.44;7399786;19;19922;-67
2023/10/21 08:05:15;;;;;;;10.88;6.70;;;;;;;9.85;100.00;99209.13;7400723;19;19911;-67
2023/10/21 08:07:44;;;;;;;10.50;6.07;;;;;;;9.90;100.00;99218.22;7400601;19;20660;-67
2023/10/21 08:10:13;;;;;;;8.85;6.00;;;;;;;9.99;100.00;99218.81;7400479;19;19929;-67
2023/10/21 08:12:41;;;;;;;11.93;6.00;;;;;;;10.06;100.00;99224.16;7399946;19;20285;-67
2023/10/21 08:15:11;;;;;;;9.95;6.15;;;;;;;10.12;100.00;99220.63;7399078;19;19925;-67
2023/10/21 08:17:40;;;;;;;8.93;5.68;;;;;;;10.17;100.00;99227.03;7401830;19;19914;-67
2023/10/21 08:20:10;;;;;;;11.93;6.60;;;;;;;10.22;100.00;99224.53;7404894;19;19948;-67
2023/10/21 08:22:42;;;;;;;10.73;6.25;;;;;;;10.27;100.00;99234.63;7405434;19;19918;-67
2023/10/21 08:25:10;;;;;;;10.85;5.88;;;;;;;10.30;100.00;99226.97;7404736;19;19926;-67
2023/10/21 08:27:39;;;;;;;11.43;5.82;;;;;;;10.33;100.00;99236.47;7405268;19;20318;-67
2023/10/21 08:30:10;;;;;;;8.93;5.63;;;;;;;10.36;100.00;99242.25;7404690;19;19915;-67
2023/10/21 08:32:39;;;;;;;10.63;5.85;;;;;;;10.39;100.00;99241.84;7406011;19;19967;-67
2023/10/21 08:35:08;;;;;;;8.27;5.97;;;;;;;10.43;100.00;99248.44;7404682;19;19919;-67
2023/10/21 08:37:37;;;;;;;10.27;5.90;;;;;;;10.49;100.00;99257.50;7405351;19;20012;-67
2023/10/21 08:40:10;;;;;;;9.52;5.82;;;;;;;10.54;100.00;99252.28;7405405;19;19998;-67
2023/10/21 08:42:39;;;;;;;10.85;6.25;;;;;;;10.58;100.00;99256.22;7404590;19;20376;-68
2023/10/21 08:45:11;;;;;;;8.77;5.53;;;;;;;10.63;100.00;99255.56;7404655;19;19918;-67
2023/10/21 08:47:44;;;;;;;13.43;6.80;;;;;;;10.69;100.00;99262.78;7404801;19;19915;-67
2023/10/21 08:50:13;;;;;;;10.77;5.10;;;;;;;10.76;100.00;99264.38;7405187;19;20242;-67
2023/10/21 08:52:43;;;;;;;11.25;5.80;;;;;;;10.84;100.00;99264.13;7403858;19;19922;-67
2023/10/21 08:55:16;;;;;;;9.63;5.97;;;;;;;10.93;100.00;99270.06;7404822;19;19936;-67
2023/10/21 08:57:45;;;;;;;7.82;5.57;;;;;;;11.02;100.00;99276.84;7404769;19;19948;-67
2023/10/21 09:00:14;;;;;;;8.20;5.55;;;;;;;11.14;100.00;99282.34;7404202;19;19939;-67
2023/10/21 09:02:43;;;;;;;10.50;6.22;;;;;;;11.24;100.00;99280.81;7403819;19;20382;-67
2023/10/21 09:05:12;;;;;;;10.07;5.50;;;;;;;11.34;100.00;99277.63;7404734;19;19914;-67
2023/10/21 09:07:47;;;;;;;8.60;6.22;;;;;;;11.43;100.00;99286.28;7404523;19;19919;-68
2023/10/21 09:10:21;;;;;;;9.02;5.78;;;;;;;11.52;100.00;99285.75;7404276;19;19918;-67
2023/10/21 09:12:49;;;;;;;10.38;6.10;;;;;;;11.65;100.00;99279.44;7404413;19;20370;-67
2023/10/21 09:15:18;;;;;;;9.55;5.60;;;;;;;11.77;100.00;99294.69;7403838;19;19915;-67
2023/10/21 09:17:52;;;;;;;7.40;5.05;;;;;;;11.86;100.00;99297.91;7404082;19;19915;-67
2023/10/21 09:20:22;;;;;;;9.52;5.60;;;;;;;11.94;100.00;99292.22;7404080;19;19926;-67
2023/10/21 09:22:52;;;;;;;7.15;5.07;;;;;;;12.01;100.00;99300.22;7404303;19;19923;-67
2023/10/21 09:25:24;;;;;;;8.63;5.60;;;;;;;12.08;100.00;99290.22;7403627;19;19923;-67
2023/10/21 09:27:55;;;;;;;8.45;4.82;;;;;;;12.21;100.00;99298.13;7403850;19;19951;-67
2023/10/21 09:30:26;;;;;;;8.60;5.32;;;;;;;12.35;100.00;99310.41;7401268;19;19919;-67
2023/10/21 09:33:03;;;;;;;7.85;5.00;;;;;;;12.54;100.00;99305.84;7404106;19;19930;-67
2023/10/21 09:35:32;;;;;;;;;;;;;;;12.68;100.00;99312.72;7406450;19;20001;-67
2023/10/21 09:38:17;;;;;;;7.53;4.82;;;;;;;12.83;100.00;99321.22;7403364;19;19918;-67
2023/10/21 09:40:48;;;;;;;7.80;4.80;;;;;;;12.97;100.00;99325.41;7403609;19;19925;-67
2023/10/21 09:43:17;;;;;;;6.68;4.40;;;;;;;13.04;100.00;99322.56;7403085;19;20264;-67
2023/10/21 09:45:46;;;;;;;6.80;4.05;;;;;;;13.15;100.00;99322.66;7403294;19;20345;-67
2023/10/21 09:48:15;;;;;;;8.65;4.78;;;;;;;13.25;100.00;99322.06;7403170;19;19925;-67
2023/10/21 09:50:50;;;;;;;9.88;4.80;;;;;;;13.35;100.00;99319.63;7403219;19;19915;-68
2023/10/21 09:53:24;;;;;;;5.85;4.50;;;;;;;13.44;100.00;99330.94;7403472;19;19918;-67
2023/10/21 09:55:57;;;;;;;8.95;4.90;;;;;;;13.52;100.00;99334.13;7402825;19;19922;-67
2023/10/21 09:58:29;;;;;;;7.85;4.70;;;;;;;13.55;100.00;99328.25;7403716;19;19953;-68
2023/10/21 10:00:59;;;;;;;8.77;4.45;;;;;;;13.57;100.00;99334.25;7403133;19;19915;-68
2023/10/21 10:03:28;;;;;;;5.78;4.25;;;;;;;13.58;100.00;99348.63;7402511;19;20317;-67
2023/10/21 10:05:58;;;;;;;5.30;3.95;;;;;;;13.59;100.00;99345.66;7403010;19;19918;-67
2023/10/21 10:08:26;;;;;;;8.10;3.90;;;;;;;13.62;100.00;99350.63;7403126;19;19919;-67
2023/10/21 10:11:00;;;;;;;7.30;3.75;;;;;;;13.69;100.00;99350.50;7403442;19;19939;-67
2023/10/21 10:13:32;;;;;;;8.43;3.50;;;;;;;13.73;100.00;99359.78;7401836;19;19926;-67
2023/10/21 10:16:20;;;;;;;4.70;2.95;;;;;;;13.77;100.00;99357.44;7403420;19;19956;-67
2023/10/21 10:18:50;;;;;;;4.10;3.08;;;;;;;13.84;100.00;99366.28;7402633;19;19918;-67
2023/10/21 10:21:20;;;;;;;5.43;2.83;;;;;;;13.86;100.00;99361.44;7403436;19;20495;-67
2023/10/21 10:23:53;;;;;;;6.22;2.83;;;;;;;13.87;100.00;99363.09;7402091;19;19922;-68
2023/10/21 10:26:48;;;;;;;3.88;2.40;;;;;;;13.91;100.00;99370.53;7402379;19;20005;-67
2023/10/21 10:29:25;;;;;;;6.28;2.75;;;;;;;13.93;100.00;99363.00;7401297;19;19918;-67
2023/10/21 10:32:14;;;;;;;3.00;2.25;;;;;;;13.95;100.00;99373.56;7402076;19;20258;-67
2023/10/21 10:34:52;;;;;;;5.30;2.03;;;;;;;13.90;100.00;99374.28;7401995;19;19926;-68
2023/10/21 10:37:52;;;;;;;3.38;1.92;;;;;;;13.84;100.00;99377.94;7402592;19;19920;-67
2023/10/21 10:40:21;;;;;;;;;;;;;;;13.74;100.00;99376.84;7403484;19;19940;-68
2023/10/21 10:42:54;;;;;;;3.17;2.05;;;;;;;13.77;100.00;99379.09;7402096;19;19928;-67
2023/10/21 10:45:23;;;;;;;;;;;;;;;13.68;100.00;99388.63;7405377;19;19930;-68
2023/10/21 10:48:02;;;;;;;2.30;1.95;;;;;;;13.70;100.00;99387.34;7401709;19;19967;-67
2023/10/21 10:50:30;;;;;;;2.15;1.35;;;;;;;13.68;100.00;99385.94;7402757;19;19911;-68
2023/10/21 10:52:59;;;;;;;3.55;1.50;;;;;;;13.62;100.00;99398.50;7401879;19;19940;-68
2023/10/21 10:55:28;;;;;;;2.28;1.15;;;;;;;13.56;100.00;99397.53;7402102;19;19919;-68
2023/10/21 10:58:01;;;;;;;2.53;0.80;;;;;;;13.51;100.00;99423.63;7402048;19;19926;-68
2023/10/21 11:00:29;;;;;;;4.50;1.08;;;;;;;13.46;100.00;99418.91;7401866;19;20019;-67
2023/10/21 11:02:59;;;;;;;3.10;0.68;;;;;;;13.41;100.00;99412.56;7401881;19;20286;-67
2023/10/21 11:05:28;;;;;;;1.13;0.98;;;;;;;13.40;100.00;99411.75;7401998;19;19926;-67
2023/10/21 11:07:58;;;;;;;1.05;0.90;;;;;;;13.52;100.00;99415.28;7402052;19;19944;-67
2023/10/21 11:10:27;;;;;;;2.72;0.70;;;;;;;13.71;100.00;99423.34;7400661;19;20269;-67
2023/10/21 11:12:55;;;;;;;0.90;0.50;;;;;;;13.97;100.00;99426.44;7401791;19;19986;-67
2023/10/21 11:15:27;;;;;;;1.85;0.50;;;;;;;14.21;100.00;99427.28;7401144;19;19927;-67
2023/10/21 11:17:55;;;;;;;1.08;0.68;;;;;;;14.28;100.00;99432.59;7401672;19;19915;-67
2023/10/21 11:20:26;;;;;;;1.48;0.43;;;;;;;14.26;100.00;99440.09;7401117;19;19914;-67
2023/10/21 11:22:55;;;;;;;1.27;0.40;;;;;;;14.22;99.55;99445.19;7401786;19;20340;-66
2023/10/21 11:25:24;;;;;;;0.80;0.47;;;;;;;14.29;98.88;99447.75;7401562;19;19990;-67
2023/10/21 11:27:53;;;;;;;0.40;0.40;;;;;;;14.39;97.25;99446.16;7401172;19;19914;-67
2023/10/21 11:30:22;;;;;;;0.77;0.60;;;;;;;14.57;96.85;99458.75;7401449;19;19922;-67
2023/10/21 11:32:54;;;;;;;4.20;0.80;;;;;;;14.93;94.44;99461.13;7401246;19;19919;-67
2023/10/21 11:35:26;;;;;;;0.90;0.50;;;;;;;15.19;93.29;99446.19;7401434;19;20316;-67
2023/10/21 11:37:55;;;;;;;0.68;0.35;;;;;;;15.41;92.57;99458.03;7400095;19;19943;-67
2023/10/21 11:40:24;;;;;;;2.10;0.57;;;;;;;15.52;91.22;99460.97;7401813;19;19914;-67